createdAt,value
2023-05-09T00:00:49.890Z,67.40
2023-05-09T00:03:16.796Z,67.50
2023-05-09T00:05:43.918Z,67.70
2023-05-09T00:08:11.108Z,67.80
2023-05-09T00:10:38.022Z,67.80
2023-05-09T00:13:05.011Z,67.80
2023-05-09T00:15:31.991Z,68.00
2023-05-09T00:17:59.406Z,67.90
2023-05-09T00:20:26.429Z,68.30
2023-05-09T00:22:53.370Z,68.10
2023-05-09T00:25:20.360Z,68.40
2023-05-09T00:27:47.298Z,68.70
2023-05-09T00:30:14.257Z,68.60
2023-05-09T00:32:41.701Z,68.40
2023-05-09T00:35:11.755Z,68.70
2023-05-09T00:37:38.792Z,68.80
2023-05-09T00:40:07.556Z,68.80
2023-05-09T00:42:35.357Z,69.00
2023-05-09T00:45:02.679Z,69.20
2023-05-09T00:47:29.727Z,69.20
2023-05-09T00:49:58.440Z,69.10
2023-05-09T00:52:26.603Z,69.40
2023-05-09T00:54:55.513Z,69.60
2023-05-09T00:57:22.987Z,69.70
2023-05-09T00:59:50.239Z,70.50
2023-05-09T01:02:18.189Z,69.70
2023-05-09T01:04:46.541Z,70.00
2023-05-09T01:07:34.970Z,70.10
2023-05-09T01:10:26.512Z,70.30
2023-05-09T01:13:28.854Z,70.10
2023-05-09T01:16:09.158Z,70.30
2023-05-09T01:19:00.875Z,70.90
2023-05-09T01:21:30.503Z,70.20
2023-05-09T01:24:27.111Z,70.20
2023-05-09T01:27:22.620Z,70.60
2023-05-09T01:29:57.213Z,70.70
2023-05-09T01:32:27.482Z,70.90
2023-05-09T01:35:04.463Z,71.10
2023-05-09T01:37:34.124Z,71.40
2023-05-09T01:40:08.318Z,71.20
2023-05-09T01:42:43.909Z,71.40
2023-05-09T01:45:12.749Z,71.60
2023-05-09T01:47:40.943Z,71.10
2023-05-09T01:50:11.593Z,71.50
2023-05-09T01:52:40.483Z,71.50
2023-05-09T01:55:08.937Z,71.50
2023-05-09T01:57:37.431Z,71.60
2023-05-09T02:00:07.924Z,71.80
2023-05-09T02:02:40.757Z,72.00
2023-05-09T02:05:11.249Z,72.00
2023-05-09T02:07:41.238Z,72.10
2023-05-09T02:10:10.071Z,72.40
2023-05-09T02:12:38.262Z,72.90
2023-05-09T02:15:06.735Z,73.20
2023-05-09T02:17:33.919Z,73.10
2023-05-09T02:20:00.923Z,73.50
2023-05-09T02:22:28.172Z,73.40
2023-05-09T02:24:55.306Z,73.30
2023-05-09T02:27:22.511Z,73.40
2023-05-09T02:29:54.053Z,73.70
2023-05-09T02:32:25.757Z,73.80
2023-05-09T02:34:54.172Z,74.00
2023-05-09T02:37:22.060Z,73.70
2023-05-09T02:39:48.947Z,74.60
2023-05-09T02:42:22.671Z,74.00
2023-05-09T02:44:49.558Z,74.30
2023-05-09T02:47:16.454Z,74.30
2023-05-09T02:49:43.322Z,74.60
2023-05-09T02:52:11.022Z,74.30
2023-05-09T02:54:38.631Z,74.00
2023-05-09T02:57:05.962Z,73.90
2023-05-09T02:59:33.484Z,74.10
2023-05-09T03:02:02.485Z,74.10
2023-05-09T03:04:30.495Z,73.90
2023-05-09T03:06:57.425Z,74.60
2023-05-09T03:09:28.166Z,74.30
2023-05-09T03:11:56.498Z,74.30
2023-05-09T03:14:23.432Z,74.00
2023-05-09T03:16:50.363Z,74.40
2023-05-09T03:19:25.680Z,75.20
2023-05-09T03:21:52.654Z,74.20
2023-05-09T03:24:20.297Z,74.50
2023-05-09T03:26:47.974Z,74.40
2023-05-09T03:29:14.898Z,74.50
2023-05-09T03:31:41.832Z,74.50
2023-05-09T03:34:14.843Z,74.10
2023-05-09T03:36:43.755Z,74.40
2023-05-09T03:39:12.851Z,74.30
2023-05-09T03:41:43.593Z,74.00
2023-05-09T03:44:10.943Z,74.10
2023-05-09T03:46:37.949Z,73.80
2023-05-09T03:49:05.431Z,73.60
2023-05-09T03:51:32.773Z,73.30
2023-05-09T03:54:01.920Z,73.20
2023-05-09T03:56:29.493Z,73.10
2023-05-09T03:58:56.481Z,73.00
2023-05-09T04:01:25.386Z,72.90
2023-05-09T04:03:52.829Z,73.20
2023-05-09T04:06:21.365Z,73.20
2023-05-09T04:08:48.570Z,73.30
2023-05-09T04:11:15.558Z,72.90
2023-05-09T04:13:45.896Z,72.80
2023-05-09T04:16:23.529Z,72.80
2023-05-09T04:18:50.498Z,72.60
2023-05-09T04:21:17.405Z,71.80
2023-05-09T04:23:47.939Z,71.10
2023-05-09T04:26:17.973Z,69.90
2023-05-09T04:28:47.988Z,69.70
2023-05-09T04:31:17.492Z,68.70
2023-05-09T04:33:47.764Z,69.00
2023-05-09T04:36:15.705Z,68.60
2023-05-09T04:38:42.829Z,68.20
2023-05-09T04:41:13.803Z,69.00
2023-05-09T04:43:40.715Z,69.20
2023-05-09T04:46:07.831Z,69.20
2023-05-09T04:48:36.118Z,68.50
2023-05-09T04:51:03.032Z,68.50
2023-05-09T04:53:29.978Z,68.80
2023-05-09T04:55:58.107Z,68.40
2023-05-09T04:58:26.534Z,68.60
2023-05-09T05:00:54.679Z,68.30
2023-05-09T05:03:22.318Z,68.40
2023-05-09T05:05:49.398Z,67.80
2023-05-09T05:08:16.405Z,68.30
2023-05-09T05:10:44.129Z,68.20
2023-05-09T05:13:13.666Z,67.90
2023-05-09T05:15:44.816Z,67.90
2023-05-09T05:18:12.771Z,67.70
2023-05-09T05:20:43.425Z,67.70
2023-05-09T05:23:10.930Z,68.70
2023-05-09T05:25:38.259Z,67.90
2023-05-09T05:28:05.786Z,66.90
2023-05-09T05:30:34.299Z,67.20
2023-05-09T05:33:02.469Z,67.20
2023-05-09T05:35:29.552Z,67.20
2023-05-09T05:37:57.555Z,67.50
2023-05-09T05:40:26.141Z,66.90
2023-05-09T05:42:54.545Z,67.20
2023-05-09T05:45:21.984Z,67.10
2023-05-09T05:47:52.697Z,66.50
2023-05-09T05:50:20.323Z,66.50
2023-05-09T05:52:47.412Z,66.50
2023-05-09T05:55:16.265Z,66.60
2023-05-09T05:57:43.408Z,65.40
2023-05-09T06:00:14.848Z,65.90
2023-05-09T06:02:47.894Z,65.90
2023-05-09T06:05:22.131Z,65.10
2023-05-09T06:07:50.433Z,64.30
2023-05-09T06:10:17.330Z,63.80
2023-05-09T06:12:45.614Z,64.30
2023-05-09T06:15:12.962Z,63.50
2023-05-09T06:17:43.859Z,63.20
2023-05-09T06:20:10.957Z,62.70
2023-05-09T06:22:38.353Z,63.00
2023-05-09T06:25:06.440Z,62.90
2023-05-09T06:27:35.043Z,61.70
2023-05-09T06:30:08.306Z,61.80
2023-05-09T06:32:41.407Z,62.30
2023-05-09T06:35:08.462Z,61.10
2023-05-09T06:37:35.364Z,61.10
2023-05-09T06:40:02.235Z,60.40
2023-05-09T06:42:30.034Z,59.70
2023-05-09T06:44:56.927Z,60.00
2023-05-09T06:47:23.887Z,59.60
2023-05-09T06:49:50.865Z,59.80
2023-05-09T06:52:17.705Z,59.70
2023-05-09T06:54:44.566Z,58.60
2023-05-09T06:57:11.484Z,58.70
2023-05-09T06:59:38.700Z,58.50
2023-05-09T07:02:05.751Z,58.70
2023-05-09T07:04:32.855Z,58.40
2023-05-09T07:07:00.787Z,58.30
2023-05-09T07:09:30.613Z,56.80
2023-05-09T07:11:57.478Z,57.10
2023-05-09T07:14:24.328Z,57.00
2023-05-09T07:16:51.252Z,56.50
2023-05-09T07:19:18.233Z,56.60
2023-05-09T07:21:45.265Z,56.90
2023-05-09T07:24:12.164Z,56.50
2023-05-09T07:26:39.083Z,56.10
2023-05-09T07:29:05.971Z,55.40
2023-05-09T07:31:35.128Z,55.50
2023-05-09T07:34:03.621Z,56.00
2023-05-09T07:36:30.519Z,55.50
2023-05-09T07:38:57.404Z,54.40
2023-05-09T07:41:24.308Z,54.00
2023-05-09T07:43:51.179Z,54.10
2023-05-09T07:46:18.169Z,54.10
2023-05-09T07:48:45.273Z,54.20
2023-05-09T07:51:12.190Z,54.40
2023-05-09T07:53:39.050Z,54.10
2023-05-09T07:56:06.787Z,53.30
2023-05-09T07:58:33.799Z,53.70
2023-05-09T08:01:00.683Z,54.20
2023-05-09T08:03:27.659Z,52.40
2023-05-09T08:05:56.138Z,51.70
2023-05-09T08:08:23.598Z,52.50
2023-05-09T08:10:50.545Z,51.90
2023-05-09T08:13:18.883Z,52.30
2023-05-09T08:15:45.811Z,53.50
2023-05-09T08:18:12.742Z,53.20
2023-05-09T08:20:39.712Z,52.60
2023-05-09T08:23:07.021Z,51.70
2023-05-09T08:25:33.994Z,51.80
2023-05-09T08:28:00.980Z,51.90
2023-05-09T08:30:29.327Z,51.90
2023-05-09T08:32:56.550Z,52.70
2023-05-09T08:35:24.705Z,53.10
2023-05-09T08:37:51.636Z,53.30
2023-05-09T08:40:18.674Z,54.40
2023-05-09T08:42:46.123Z,53.70
2023-05-09T08:45:15.073Z,54.10
2023-05-09T08:47:42.513Z,54.60
2023-05-09T08:50:11.647Z,53.60
2023-05-09T08:52:38.765Z,53.90
2023-05-09T08:55:06.238Z,53.70
2023-05-09T08:57:36.737Z,53.60
2023-05-09T09:00:06.872Z,53.50
2023-05-09T09:02:35.803Z,53.90
2023-05-09T09:05:02.949Z,53.60
2023-05-09T09:07:31.329Z,52.20
2023-05-09T09:09:58.965Z,51.80
2023-05-09T09:12:26.660Z,52.20
2023-05-09T09:14:55.940Z,51.30
2023-05-09T09:17:28.989Z,52.20
2023-05-09T09:20:02.538Z,52.70
2023-05-09T09:22:33.920Z,53.00
2023-05-09T09:25:01.998Z,50.70
2023-05-09T09:27:28.908Z,49.70
2023-05-09T09:30:06.578Z,49.30
2023-05-09T09:32:34.306Z,48.60
2023-05-09T09:35:06.983Z,49.40
2023-05-09T09:37:35.534Z,49.40
2023-05-09T09:40:04.039Z,49.70
2023-05-09T09:42:48.097Z,49.30
2023-05-09T09:45:20.022Z,48.80
2023-05-09T09:47:49.941Z,49.30
2023-05-09T09:50:23.352Z,48.80
2023-05-09T09:52:56.030Z,47.00
2023-05-09T09:55:24.537Z,46.80
2023-05-09T09:57:52.325Z,46.60
2023-05-09T10:00:26.054Z,46.90
2023-05-09T10:02:56.098Z,47.00
2023-05-09T10:05:31.323Z,47.50
2023-05-09T10:08:00.752Z,46.70
2023-05-09T10:10:30.749Z,46.20
2023-05-09T10:13:00.217Z,45.90
2023-05-09T10:15:41.370Z,46.80
2023-05-09T10:18:20.258Z,47.10
2023-05-09T10:20:47.490Z,46.30
2023-05-09T10:23:16.569Z,45.20
2023-05-09T10:25:49.287Z,46.00
2023-05-09T10:28:21.796Z,46.00
2023-05-09T10:31:06.504Z,45.50
2023-05-09T10:33:44.143Z,45.80
2023-05-09T10:36:12.149Z,44.80
2023-05-09T10:38:39.893Z,43.90
2023-05-09T10:41:07.312Z,43.90
2023-05-09T10:43:36.612Z,44.50
2023-05-09T10:46:05.226Z,44.80
2023-05-09T10:48:33.797Z,45.20
2023-05-09T10:51:03.061Z,45.80
2023-05-09T10:53:48.635Z,46.00
2023-05-09T10:56:33.719Z,45.70
2023-05-09T10:59:00.922Z,45.60
2023-05-09T11:01:38.846Z,45.80
2023-05-09T11:04:11.306Z,43.80
2023-05-09T11:06:55.789Z,43.60
2023-05-09T11:09:32.713Z,43.60
2023-05-09T11:12:05.372Z,44.70
2023-05-09T11:14:40.584Z,43.40
2023-05-09T11:17:10.879Z,43.80
2023-05-09T11:19:45.397Z,43.60
2023-05-09T11:22:16.160Z,43.90
2023-05-09T11:24:51.329Z,44.20
2023-05-09T11:27:24.605Z,45.50
2023-05-09T11:29:53.280Z,46.10
2023-05-09T11:32:22.416Z,46.50
2023-05-09T11:34:49.865Z,46.90
2023-05-09T11:37:18.304Z,46.40
2023-05-09T11:40:04.848Z,45.60
2023-05-09T11:42:32.470Z,44.50
2023-05-09T11:44:59.735Z,44.00
2023-05-09T11:47:28.921Z,43.80
2023-05-09T11:49:55.967Z,44.30
2023-05-09T11:52:22.821Z,44.80
2023-05-09T11:54:50.193Z,45.00
2023-05-09T11:57:17.901Z,46.00
2023-05-09T11:59:51.445Z,45.00
2023-05-09T12:02:19.221Z,45.90
2023-05-09T12:04:46.129Z,44.60
2023-05-09T12:07:13.216Z,45.30
2023-05-09T12:09:40.321Z,45.00
2023-05-09T12:12:14.321Z,45.20
2023-05-09T12:14:42.076Z,45.40
2023-05-09T12:17:09.508Z,46.00
2023-05-09T12:19:36.936Z,45.70
2023-05-09T12:22:06.665Z,45.20
2023-05-09T12:24:37.397Z,46.00
2023-05-09T12:27:05.182Z,45.60
2023-05-09T12:29:32.128Z,45.20
2023-05-09T12:32:00.236Z,44.90
2023-05-09T12:34:27.211Z,44.00
2023-05-09T12:36:54.080Z,43.60
2023-05-09T12:39:22.949Z,43.50
2023-05-09T12:42:01.024Z,43.50
2023-05-09T12:44:29.804Z,43.10
2023-05-09T12:47:02.856Z,43.50
2023-05-09T12:49:31.717Z,43.80
2023-05-09T12:52:02.997Z,43.40
2023-05-09T12:54:31.453Z,44.00
2023-05-09T12:56:58.851Z,43.50
2023-05-09T12:59:30.254Z,44.00
2023-05-09T13:01:59.704Z,43.00
2023-05-09T13:04:28.646Z,42.50
2023-05-09T13:06:57.995Z,43.10
2023-05-09T13:09:26.527Z,42.40
2023-05-09T13:11:54.488Z,42.10
2023-05-09T13:14:23.122Z,41.90
2023-05-09T13:16:50.078Z,41.60
2023-05-09T13:19:17.167Z,42.20
2023-05-09T13:21:44.056Z,42.00
2023-05-09T13:24:10.913Z,41.50
2023-05-09T13:26:37.782Z,42.00
2023-05-09T13:29:04.635Z,41.50
2023-05-09T13:31:31.864Z,42.20
2023-05-09T13:33:58.774Z,42.10
2023-05-09T13:36:25.654Z,41.30
2023-05-09T13:38:52.526Z,41.80
2023-05-09T13:41:23.668Z,41.30
2023-05-09T13:43:50.956Z,41.40
2023-05-09T13:46:17.856Z,41.50
2023-05-09T13:48:44.895Z,41.40
2023-05-09T13:51:11.786Z,41.70
2023-05-09T13:53:39.370Z,41.40
2023-05-09T13:56:09.443Z,41.60
2023-05-09T13:58:36.841Z,42.10
2023-05-09T14:01:03.864Z,42.40
2023-05-09T14:03:31.714Z,41.50
2023-05-09T14:05:59.701Z,41.10
2023-05-09T14:08:26.582Z,41.60
2023-05-09T14:10:53.521Z,41.70
2023-05-09T14:13:20.449Z,41.70
2023-05-09T14:15:47.440Z,41.70
2023-05-09T14:18:17.653Z,41.80
2023-05-09T14:20:46.157Z,42.50
2023-05-09T14:23:13.501Z,41.70
2023-05-09T14:25:40.441Z,41.50
2023-05-09T14:28:09.349Z,41.20
2023-05-09T14:30:36.780Z,41.40
2023-05-09T14:33:03.659Z,41.90
2023-05-09T14:35:32.851Z,41.80
2023-05-09T14:38:03.170Z,42.30
2023-05-09T14:40:31.885Z,42.90
2023-05-09T14:43:02.253Z,42.10
2023-05-09T14:45:30.301Z,41.90
2023-05-09T14:47:57.712Z,42.30
2023-05-09T14:50:24.655Z,42.70
2023-05-09T14:52:52.093Z,42.40
2023-05-09T14:55:19.406Z,42.40
2023-05-09T14:57:46.371Z,41.90
2023-05-09T15:00:21.445Z,42.10
2023-05-09T15:02:50.075Z,41.40
2023-05-09T15:05:17.616Z,42.00
2023-05-09T15:07:44.574Z,41.40
2023-05-09T15:10:11.626Z,41.70
2023-05-09T15:12:38.590Z,41.80
2023-05-09T15:15:17.886Z,41.80
2023-05-09T15:17:45.904Z,42.20
2023-05-09T15:20:18.175Z,43.00
2023-05-09T15:22:47.175Z,42.40
2023-05-09T15:25:14.723Z,42.60
2023-05-09T15:27:41.619Z,43.00
2023-05-09T15:30:10.056Z,42.30
2023-05-09T15:32:42.899Z,42.20
2023-05-09T15:35:10.330Z,42.30
2023-05-09T15:37:37.642Z,42.70
2023-05-09T15:40:05.285Z,42.50
2023-05-09T15:42:32.245Z,42.50
2023-05-09T15:44:59.188Z,43.30
2023-05-09T15:47:26.176Z,43.00
2023-05-09T15:49:53.441Z,43.20
2023-05-09T15:52:20.331Z,43.00
2023-05-09T15:54:47.313Z,42.90
2023-05-09T15:57:14.236Z,42.60
2023-05-09T15:59:41.287Z,43.00
2023-05-09T16:02:08.289Z,42.70
2023-05-09T16:04:35.216Z,42.70
2023-05-09T16:07:02.408Z,42.80
2023-05-09T16:09:29.435Z,42.80
2023-05-09T16:11:56.656Z,42.70
2023-05-09T16:14:23.823Z,42.80
2023-05-09T16:16:52.404Z,42.80
2023-05-09T16:19:19.284Z,43.10
2023-05-09T16:21:46.836Z,43.50
2023-05-09T16:24:13.788Z,42.90
2023-05-09T16:26:40.678Z,43.00
2023-05-09T16:29:07.568Z,43.40
2023-05-09T16:31:35.673Z,43.00
2023-05-09T16:34:02.975Z,42.80
2023-05-09T16:36:30.342Z,42.70
2023-05-09T16:38:57.544Z,41.80
2023-05-09T16:41:24.444Z,41.80
2023-05-09T16:43:51.722Z,41.40
2023-05-09T16:46:18.654Z,41.60
2023-05-09T16:48:45.589Z,41.10
2023-05-09T16:51:12.485Z,41.30
2023-05-09T16:53:39.367Z,41.20
2023-05-09T16:56:07.499Z,41.20
2023-05-09T16:58:36.132Z,40.90
2023-05-09T17:01:03.878Z,40.60
2023-05-09T17:03:30.841Z,40.60
2023-05-09T17:05:57.757Z,40.40
2023-05-09T17:08:24.661Z,40.50
2023-05-09T17:10:51.556Z,40.70
2023-05-09T17:13:18.895Z,40.10
2023-05-09T17:15:46.174Z,40.00
2023-05-09T17:18:17.043Z,40.30
2023-05-09T17:20:46.336Z,40.00
2023-05-09T17:23:13.204Z,40.20
2023-05-09T17:25:40.110Z,40.50
2023-05-09T17:28:07.645Z,40.70
2023-05-09T17:30:34.539Z,41.20
2023-05-09T17:33:02.153Z,41.50
2023-05-09T17:35:30.280Z,41.80
2023-05-09T17:37:57.222Z,42.00
2023-05-09T17:40:24.162Z,42.40
2023-05-09T17:42:51.188Z,42.80
2023-05-09T17:45:18.082Z,43.20
2023-05-09T17:47:45.017Z,43.40
2023-05-09T17:50:14.583Z,43.80
2023-05-09T17:52:41.641Z,44.00
2023-05-09T17:55:08.838Z,44.30
2023-05-09T17:57:35.979Z,44.50
2023-05-09T18:00:03.982Z,45.10
2023-05-09T18:02:40.890Z,45.30
2023-05-09T18:05:11.203Z,45.40
2023-05-09T18:07:40.315Z,45.60
2023-05-09T18:10:08.850Z,45.50
2023-05-09T18:12:37.404Z,45.60
2023-05-09T18:15:05.280Z,45.70
2023-05-09T18:17:32.203Z,45.90
2023-05-09T18:19:59.205Z,46.00
2023-05-09T18:22:26.090Z,46.20
2023-05-09T18:24:53.222Z,46.30
2023-05-09T18:27:20.224Z,46.60
2023-05-09T18:29:47.557Z,46.70
2023-05-09T18:32:14.624Z,47.60
2023-05-09T18:34:42.066Z,47.20
2023-05-09T18:37:10.389Z,47.40
2023-05-09T18:39:37.316Z,47.60
2023-05-09T18:42:06.256Z,48.30
2023-05-09T18:44:33.154Z,48.00
2023-05-09T18:47:00.081Z,48.10
2023-05-09T18:49:27.112Z,48.00
2023-05-09T18:51:54.037Z,48.40
2023-05-09T18:54:20.932Z,48.50
2023-05-09T18:56:47.808Z,48.50
2023-05-09T18:59:16.313Z,48.70
2023-05-09T19:01:44.038Z,48.80
2023-05-09T19:04:11.084Z,48.80
2023-05-09T19:06:38.164Z,48.90
2023-05-09T19:09:05.600Z,49.20
2023-05-09T19:11:32.488Z,49.30
2023-05-09T19:13:59.661Z,49.70
2023-05-09T19:16:26.786Z,49.80
2023-05-09T19:18:58.086Z,50.00
2023-05-09T19:21:25.546Z,50.20
2023-05-09T19:23:52.572Z,50.30
2023-05-09T19:26:21.655Z,50.40
2023-05-09T19:28:48.597Z,50.50
2023-05-09T19:31:16.233Z,50.90
2023-05-09T19:33:45.587Z,50.90
2023-05-09T19:36:12.923Z,51.00
2023-05-09T19:38:39.958Z,51.30
2023-05-09T19:41:06.901Z,51.30
2023-05-09T19:43:33.773Z,51.40
2023-05-09T19:46:00.707Z,51.60
2023-05-09T19:48:27.618Z,52.00
2023-05-09T19:51:00.469Z,52.00
2023-05-09T19:53:27.461Z,52.60
2023-05-09T19:55:54.366Z,52.70
2023-05-09T19:58:21.280Z,52.60
2023-05-09T20:00:48.738Z,53.00
2023-05-09T20:03:15.776Z,53.20
2023-05-09T20:05:42.751Z,53.20
2023-05-09T20:08:09.680Z,53.70
2023-05-09T20:10:36.634Z,53.50
2023-05-09T20:13:04.405Z,53.90
2023-05-09T20:15:31.397Z,54.00
2023-05-09T20:17:58.561Z,54.20
2023-05-09T20:20:25.530Z,54.30
2023-05-09T20:22:52.433Z,54.60
2023-05-09T20:25:19.648Z,54.90
2023-05-09T20:27:46.554Z,54.90
2023-05-09T20:30:13.891Z,54.90
2023-05-09T20:32:41.074Z,55.20
2023-05-09T20:35:08.394Z,55.20
2023-05-09T20:37:36.199Z,55.70
2023-05-09T20:40:06.461Z,55.50
2023-05-09T20:42:33.625Z,55.40
2023-05-09T20:45:00.506Z,55.50
2023-05-09T20:47:27.385Z,55.70
2023-05-09T20:49:55.484Z,56.00
2023-05-09T20:52:23.645Z,55.80
2023-05-09T20:54:50.569Z,55.80
2023-05-09T20:57:17.418Z,55.80
2023-05-09T20:59:44.301Z,56.10
2023-05-09T21:02:11.279Z,56.20
2023-05-09T21:04:38.332Z,56.20
2023-05-09T21:07:05.193Z,56.30
2023-05-09T21:09:32.068Z,56.50
2023-05-09T21:12:00.596Z,56.40
2023-05-09T21:14:27.715Z,56.40
2023-05-09T21:16:57.905Z,56.70
2023-05-09T21:19:25.175Z,56.70
2023-05-09T21:21:52.082Z,56.70
2023-05-09T21:24:18.975Z,56.70
2023-05-09T21:26:45.883Z,56.90
2023-05-09T21:29:12.788Z,56.80
2023-05-09T21:31:39.822Z,57.00
2023-05-09T21:34:09.985Z,57.10
2023-05-09T21:36:38.701Z,57.00
2023-05-09T21:39:09.644Z,57.10
2023-05-09T21:41:38.687Z,57.10
2023-05-09T21:44:07.410Z,57.30
2023-05-09T21:46:35.216Z,57.10
2023-05-09T21:49:02.229Z,57.20
2023-05-09T21:51:29.620Z,57.20
2023-05-09T21:53:56.484Z,57.20
2023-05-09T21:56:23.586Z,57.30
2023-05-09T21:58:50.862Z,57.40
2023-05-09T22:01:19.301Z,57.50
2023-05-09T22:03:46.356Z,57.50
2023-05-09T22:06:13.651Z,57.60
2023-05-09T22:08:41.007Z,57.50
2023-05-09T22:11:07.891Z,57.70
2023-05-09T22:13:36.332Z,57.60
2023-05-09T22:16:03.869Z,57.80
2023-05-09T22:18:31.518Z,57.80
2023-05-09T22:20:59.302Z,57.80
2023-05-09T22:23:26.308Z,57.80
2023-05-09T22:25:53.376Z,57.90
2023-05-09T22:28:20.387Z,57.80
2023-05-09T22:30:47.298Z,58.00
2023-05-09T22:33:14.246Z,58.20
2023-05-09T22:35:41.302Z,58.10
2023-05-09T22:38:08.185Z,58.20
2023-05-09T22:40:35.108Z,58.20
2023-05-09T22:43:02.012Z,58.50
2023-05-09T22:45:28.916Z,58.40
2023-05-09T22:47:55.799Z,58.40
2023-05-09T22:50:23.059Z,58.40
2023-05-09T22:52:49.934Z,58.50
2023-05-09T22:55:16.836Z,58.40
2023-05-09T22:57:43.708Z,58.60
2023-05-09T23:00:11.341Z,58.50
2023-05-09T23:02:38.365Z,58.60
2023-05-09T23:05:06.257Z,58.50
2023-05-09T23:07:33.128Z,58.70
2023-05-09T23:09:59.996Z,58.90
2023-05-09T23:12:27.114Z,58.90
2023-05-09T23:14:53.976Z,59.00
2023-05-09T23:17:21.265Z,59.10
2023-05-09T23:19:48.156Z,59.20
2023-05-09T23:22:15.818Z,59.10
2023-05-09T23:24:42.671Z,59.40
2023-05-09T23:27:09.590Z,59.40
2023-05-09T23:29:36.566Z,59.50
2023-05-09T23:32:03.560Z,59.70
2023-05-09T23:34:30.974Z,59.80
2023-05-09T23:36:57.841Z,59.80
2023-05-09T23:39:24.707Z,59.80
2023-05-09T23:41:51.571Z,60.00
2023-05-09T23:44:18.572Z,60.00
2023-05-09T23:46:45.522Z,60.10
2023-05-09T23:49:14.973Z,60.00
2023-05-09T23:51:41.869Z,60.40
2023-05-09T23:54:08.780Z,60.40
2023-05-09T23:56:35.724Z,60.60
2023-05-09T23:59:02.599Z,60.30
